Terminal Aerodrome Forecast
Issued by NWS

Home | Current Version | Previous Version | Graphics & Text | Print | Product List | Glossary On
Versions: 1 2 3 4 5 6 7 8 9 10 11 12 13 14 15 16 17 18 19 20 21
000
FTUS43 KGRB 161200 AAA
TAFAUW
TAF AMD
KAUW 161241Z 1613/1712 35012G18KT 4SM -SN BR BKN008 OVC015
     FM161400 34013G20KT 2SM -SN BR BKN008 OVC015
      TEMPO 1620/1622 4SM -SN OVC015
     FM162200 31012KT P6SM -SN BKN020 OVC035=

USA.gov is the U.S. government's official web portal to all federal, state and local government web resources and services.